createdAt,value
2022-12-12T00:00:34.395Z,99.90
2022-12-12T00:01:23.723Z,99.90
2022-12-12T00:01:58.222Z,99.90
2022-12-12T00:02:32.837Z,99.90
2022-12-12T00:03:07.896Z,99.90
2022-12-12T00:03:41.911Z,99.90
2022-12-12T00:04:17.654Z,99.90
2022-12-12T00:04:52.551Z,99.90
2022-12-12T00:05:28.531Z,99.90
2022-12-12T00:06:10.688Z,99.90
2022-12-12T00:06:45.507Z,99.90
2022-12-12T00:07:19.216Z,99.90
2022-12-12T00:07:53.379Z,99.90
2022-12-12T00:08:30.399Z,99.90
2022-12-12T00:09:05.127Z,99.90
2022-12-12T00:09:41.489Z,99.90
2022-12-12T00:10:15.938Z,99.90
2022-12-12T00:10:50.232Z,99.90
2022-12-12T00:11:27.213Z,99.90
2022-12-12T00:12:01.523Z,99.80
2022-12-12T00:12:36.270Z,99.70
2022-12-12T00:13:11.871Z,99.80
2022-12-12T00:13:47.220Z,99.80
2022-12-12T00:14:22.839Z,99.70
2022-12-12T00:14:56.588Z,99.60
2022-12-12T00:15:30.322Z,99.60
2022-12-12T00:16:07.424Z,99.60
2022-12-12T00:16:42.791Z,99.60
2022-12-12T00:17:18.313Z,99.60
2022-12-12T00:17:54.461Z,99.60
2022-12-12T00:18:28.427Z,99.50
2022-12-12T00:19:03.229Z,99.60
2022-12-12T00:19:39.077Z,99.70
2022-12-12T00:20:13.549Z,99.60
2022-12-12T00:20:59.391Z,99.50
2022-12-12T00:21:34.450Z,99.50
2022-12-12T00:22:20.702Z,99.70
2022-12-12T00:23:08.806Z,99.70
2022-12-12T00:23:47.451Z,99.80
2022-12-12T00:24:27.854Z,99.90
2022-12-12T00:25:03.326Z,99.90
2022-12-12T00:25:38.743Z,99.80
2022-12-12T00:26:20.097Z,99.90
2022-12-12T00:27:21.364Z,99.90
2022-12-12T00:27:56.621Z,99.90
2022-12-12T00:28:30.242Z,99.80
2022-12-12T00:29:06.564Z,99.70
2022-12-12T00:29:41.485Z,99.60
2022-12-12T00:30:17.219Z,99.60
2022-12-12T00:30:51.916Z,99.60
2022-12-12T00:31:26.786Z,99.60
2022-12-12T00:32:04.329Z,99.60
2022-12-12T00:32:38.102Z,99.80
2022-12-12T00:33:12.340Z,99.60
2022-12-12T00:33:49.758Z,99.60
2022-12-12T00:34:23.044Z,99.60
2022-12-12T00:34:57.457Z,99.70
2022-12-12T00:35:33.365Z,99.70
2022-12-12T00:36:07.784Z,99.60
2022-12-12T00:36:43.535Z,99.90
2022-12-12T00:37:18.510Z,99.50
2022-12-12T00:37:53.833Z,99.50
2022-12-12T00:38:29.509Z,99.40
2022-12-12T00:39:05.661Z,99.50
2022-12-12T00:39:40.718Z,99.50
2022-12-12T00:40:16.692Z,99.40
2022-12-12T00:41:25.060Z,99.10
2022-12-12T00:42:00.926Z,99.30
2022-12-12T00:42:36.375Z,99.30
2022-12-12T00:43:11.629Z,99.20
2022-12-12T00:43:47.066Z,99.30
2022-12-12T00:44:21.562Z,99.30
2022-12-12T00:44:54.856Z,99.30
2022-12-12T00:45:30.940Z,99.40
2022-12-12T00:46:04.947Z,99.40
2022-12-12T00:46:39.600Z,99.40
2022-12-12T00:47:13.913Z,99.40
2022-12-12T00:47:47.875Z,99.40
2022-12-12T00:48:23.399Z,99.30
2022-12-12T00:48:59.353Z,99.30
2022-12-12T00:49:34.631Z,99.20
2022-12-12T00:50:10.754Z,99.20
2022-12-12T00:50:46.083Z,99.30
2022-12-12T00:51:22.870Z,99.30
2022-12-12T00:51:56.744Z,99.30
2022-12-12T00:52:31.547Z,99.30
2022-12-12T00:53:06.680Z,99.30
2022-12-12T00:53:41.357Z,99.20
2022-12-12T00:54:16.398Z,99.20
2022-12-12T00:54:52.019Z,99.20
2022-12-12T00:55:27.902Z,99.30
2022-12-12T00:56:02.758Z,99.40
2022-12-12T00:56:37.029Z,99.40
2022-12-12T00:57:11.725Z,99.40
2022-12-12T00:57:46.303Z,99.50
2022-12-12T00:58:20.520Z,99.40
2022-12-12T00:58:55.641Z,99.40
2022-12-12T00:59:30.999Z,99.40
2022-12-12T01:00:05.998Z,99.50
2022-12-12T01:00:41.727Z,99.40
2022-12-12T01:01:19.411Z,99.40
2022-12-12T01:01:54.424Z,99.40
2022-12-12T01:02:28.675Z,99.40
2022-12-12T01:03:03.273Z,99.40
2022-12-12T01:03:41.149Z,99.30
2022-12-12T01:04:15.506Z,99.20
2022-12-12T01:04:51.346Z,99.20
2022-12-12T01:05:26.972Z,99.20
2022-12-12T01:06:02.304Z,99.20
2022-12-12T01:06:37.718Z,99.20
2022-12-12T01:07:12.926Z,99.20
2022-12-12T01:07:47.666Z,99.20
2022-12-12T01:08:23.580Z,99.20
2022-12-12T01:08:58.136Z,99.10
2022-12-12T01:09:35.262Z,99.00
2022-12-12T01:10:10.998Z,98.90
2022-12-12T01:10:45.318Z,98.90
2022-12-12T01:11:20.651Z,98.90
2022-12-12T01:11:55.973Z,98.90
2022-12-12T01:12:30.806Z,98.90
2022-12-12T01:13:06.723Z,98.80
2022-12-12T01:13:41.626Z,98.70
2022-12-12T01:14:16.452Z,98.60
2022-12-12T01:14:51.332Z,98.60
2022-12-12T01:15:27.521Z,98.60
2022-12-12T01:16:02.723Z,98.50
2022-12-12T01:16:36.678Z,98.50
2022-12-12T01:17:11.068Z,98.60
2022-12-12T01:17:46.279Z,98.60
2022-12-12T01:18:21.316Z,98.70
2022-12-12T01:18:56.314Z,98.70
2022-12-12T01:19:32.005Z,98.70
2022-12-12T01:20:09.238Z,98.70
2022-12-12T01:20:43.432Z,98.70
2022-12-12T01:21:19.715Z,98.70
2022-12-12T01:21:53.568Z,98.70
2022-12-12T01:22:27.592Z,98.60
2022-12-12T01:23:03.709Z,98.60
2022-12-12T01:23:37.894Z,98.60
2022-12-12T01:24:12.224Z,98.60
2022-12-12T01:24:50.700Z,98.50
2022-12-12T01:25:25.542Z,98.50
2022-12-12T01:26:05.392Z,98.50
2022-12-12T01:26:41.440Z,98.50
2022-12-12T01:27:16.235Z,98.50
2022-12-12T01:27:50.337Z,98.50
2022-12-12T01:28:29.106Z,98.60
2022-12-12T01:29:03.646Z,98.70
2022-12-12T01:30:03.527Z,98.70
2022-12-12T01:30:37.660Z,98.80
2022-12-12T01:31:13.243Z,98.90
2022-12-12T01:31:57.581Z,98.90
2022-12-12T01:32:32.203Z,98.90
2022-12-12T01:33:10.094Z,98.70
2022-12-12T01:33:47.649Z,98.60
2022-12-12T01:34:22.483Z,98.50
2022-12-12T01:34:56.768Z,98.50
2022-12-12T01:35:33.199Z,98.50
2022-12-12T01:36:07.893Z,98.50
2022-12-12T01:36:43.179Z,98.50
2022-12-12T01:37:18.056Z,98.60
2022-12-12T01:37:52.988Z,98.60
2022-12-12T01:38:26.935Z,98.60
2022-12-12T01:39:02.406Z,98.60
2022-12-12T01:39:36.700Z,98.50
2022-12-12T01:40:15.765Z,98.60
2022-12-12T01:40:52.181Z,98.60
2022-12-12T01:41:30.589Z,98.60
2022-12-12T01:42:05.418Z,98.50
2022-12-12T01:42:40.787Z,98.60
2022-12-12T01:43:16.754Z,98.70
2022-12-12T01:43:51.611Z,98.70
2022-12-12T01:44:43.698Z,98.70
2022-12-12T01:45:57.265Z,98.80
2022-12-12T01:46:45.072Z,98.80
2022-12-12T01:47:22.593Z,98.70
2022-12-12T01:48:01.921Z,98.70
2022-12-12T01:48:44.227Z,98.70
2022-12-12T01:49:21.936Z,98.70
2022-12-12T01:50:00.499Z,98.70
2022-12-12T01:50:36.541Z,98.70
2022-12-12T01:51:15.593Z,98.80
2022-12-12T01:51:53.345Z,98.70
2022-12-12T01:52:31.800Z,98.60
2022-12-12T01:53:06.904Z,98.50
2022-12-12T01:53:42.470Z,98.50
2022-12-12T01:54:20.947Z,98.50
2022-12-12T01:54:58.674Z,98.50
2022-12-12T01:55:35.784Z,98.40
2022-12-12T01:56:15.053Z,98.40
2022-12-12T01:56:57.522Z,98.40
2022-12-12T01:57:37.765Z,98.40
2022-12-12T01:58:13.073Z,98.40
2022-12-12T01:58:50.252Z,98.40
2022-12-12T01:59:26.931Z,98.30
2022-12-12T02:00:03.898Z,98.30
2022-12-12T02:00:38.759Z,98.40
2022-12-12T02:01:18.114Z,98.40
2022-12-12T02:01:52.375Z,98.50
2022-12-12T02:02:27.293Z,98.70
2022-12-12T02:03:04.359Z,98.60
2022-12-12T02:03:40.213Z,98.60
2022-12-12T02:04:15.510Z,98.60
2022-12-12T02:04:50.144Z,98.60
2022-12-12T02:05:33.233Z,98.70
2022-12-12T02:06:09.869Z,98.80
2022-12-12T02:06:44.638Z,98.90
2022-12-12T02:07:20.013Z,98.90
2022-12-12T02:07:54.401Z,98.90
2022-12-12T02:08:30.583Z,98.90
2022-12-12T02:09:08.930Z,98.90
2022-12-12T02:09:43.316Z,98.90
2022-12-12T02:10:18.562Z,98.90
2022-12-12T02:10:53.846Z,99.00
2022-12-12T02:11:29.249Z,98.90
2022-12-12T02:12:04.568Z,98.90
2022-12-12T02:12:38.905Z,98.80
2022-12-12T02:13:21.283Z,98.70
2022-12-12T02:13:57.370Z,98.70
2022-12-12T02:14:37.003Z,98.70
2022-12-12T02:15:13.221Z,98.80
2022-12-12T02:16:00.155Z,98.80
2022-12-12T02:16:49.418Z,98.80
2022-12-12T02:17:52.463Z,98.70
2022-12-12T02:18:40.831Z,98.80
2022-12-12T02:19:58.902Z,98.80
2022-12-12T02:20:56.852Z,98.90
2022-12-12T02:21:39.222Z,99.20
2022-12-12T02:22:28.240Z,98.90
2022-12-12T02:23:29.214Z,98.90
2022-12-12T02:24:40.099Z,98.90
2022-12-12T02:25:48.256Z,98.80
2022-12-12T02:27:08.593Z,98.80
2022-12-12T02:28:13.105Z,98.70
2022-12-12T02:29:26.466Z,98.60
2022-12-12T02:30:12.787Z,98.60
2022-12-12T02:30:59.146Z,98.50
2022-12-12T02:31:39.155Z,98.50
2022-12-12T02:32:22.514Z,98.50
2022-12-12T02:33:22.301Z,98.50
2022-12-12T02:34:02.450Z,98.60
2022-12-12T02:34:50.266Z,98.60
2022-12-12T02:35:36.426Z,98.60
2022-12-12T02:36:18.572Z,98.70
2022-12-12T02:37:03.631Z,98.70
2022-12-12T02:37:43.352Z,98.80
2022-12-12T02:38:29.468Z,98.80
2022-12-12T02:39:11.538Z,98.90
2022-12-12T02:39:56.828Z,98.90
2022-12-12T02:40:38.032Z,98.90
2022-12-12T02:41:22.667Z,98.90
2022-12-12T02:42:04.380Z,98.90
2022-12-12T02:42:44.430Z,98.90
2022-12-12T02:43:31.698Z,98.80
2022-12-12T02:44:17.564Z,98.80
2022-12-12T02:44:59.523Z,98.80
2022-12-12T02:45:39.476Z,98.80
2022-12-12T02:46:22.603Z,98.80
2022-12-12T02:47:01.155Z,98.80
2022-12-12T02:47:40.204Z,98.80
2022-12-12T02:48:22.490Z,98.70
2022-12-12T02:49:01.215Z,98.60
2022-12-12T02:49:42.169Z,98.60
2022-12-12T02:50:18.980Z,98.70
2022-12-12T02:50:54.933Z,98.80
2022-12-12T02:51:32.666Z,98.90
2022-12-12T02:52:07.987Z,99.00
2022-12-12T02:52:45.318Z,99.00
2022-12-12T02:53:20.333Z,99.00
2022-12-12T02:53:56.835Z,99.00
2022-12-12T02:54:30.950Z,99.00
2022-12-12T02:55:05.456Z,99.00
2022-12-12T02:55:40.258Z,99.00
2022-12-12T02:56:47.091Z,98.90
2022-12-12T02:57:24.774Z,98.90
2022-12-12T02:57:59.325Z,98.80
2022-12-12T02:58:34.654Z,98.80
2022-12-12T02:59:10.190Z,98.90
2022-12-12T02:59:48.593Z,98.90
2022-12-12T03:00:24.065Z,98.90
2022-12-12T03:01:11.448Z,98.80
2022-12-12T03:02:06.553Z,98.90
2022-12-12T03:03:19.150Z,98.90
2022-12-12T03:04:17.770Z,99.00
2022-12-12T03:05:24.919Z,99.10
2022-12-12T03:06:48.377Z,98.90
2022-12-12T03:07:49.023Z,98.80
2022-12-12T03:08:46.501Z,98.70
2022-12-12T03:09:32.947Z,98.60
2022-12-12T03:10:18.917Z,98.60
2022-12-12T03:10:58.386Z,98.60
2022-12-12T03:11:43.677Z,98.70
2022-12-12T03:12:24.454Z,98.80
2022-12-12T03:13:06.949Z,98.80
2022-12-12T03:13:48.787Z,98.90
2022-12-12T03:14:27.850Z,99.00
2022-12-12T03:15:08.018Z,98.90
2022-12-12T03:15:53.790Z,98.90
2022-12-12T03:16:30.950Z,98.80
2022-12-12T03:17:12.592Z,98.80
2022-12-12T03:17:57.352Z,98.80
2022-12-12T03:18:38.703Z,98.90
2022-12-12T03:19:20.680Z,98.90
2022-12-12T03:20:01.205Z,98.90
2022-12-12T03:20:39.116Z,98.90
2022-12-12T03:21:18.074Z,98.90
2022-12-12T03:21:55.798Z,98.90
2022-12-12T03:22:35.883Z,99.00
2022-12-12T03:23:16.330Z,98.90
2022-12-12T03:23:55.645Z,98.90
2022-12-12T03:24:34.523Z,98.90
2022-12-12T03:25:15.816Z,98.90
2022-12-12T03:25:58.917Z,98.90
2022-12-12T03:26:37.181Z,98.90
2022-12-12T03:27:17.426Z,98.90
2022-12-12T03:27:58.071Z,99.00
2022-12-12T03:28:37.798Z,99.00
2022-12-12T03:29:16.026Z,99.00
2022-12-12T03:29:57.372Z,98.90
2022-12-12T03:30:37.113Z,98.90
2022-12-12T03:31:12.318Z,99.00
2022-12-12T03:31:55.788Z,98.90
2022-12-12T03:32:37.874Z,98.90
2022-12-12T03:33:20.396Z,99.00
2022-12-12T03:33:59.661Z,99.00
2022-12-12T03:34:38.979Z,99.00
2022-12-12T03:35:19.260Z,99.00
2022-12-12T03:35:56.162Z,98.90
2022-12-12T03:36:39.723Z,99.00
2022-12-12T03:37:19.252Z,98.70
2022-12-12T03:37:57.457Z,98.70
2022-12-12T03:38:37.665Z,98.80
2022-12-12T03:39:20.676Z,98.90
2022-12-12T03:39:58.988Z,98.90
2022-12-12T03:40:42.212Z,98.80
2022-12-12T03:41:20.367Z,98.80
2022-12-12T03:42:03.822Z,99.10
2022-12-12T03:42:45.212Z,98.90
2022-12-12T03:43:22.939Z,98.80
2022-12-12T03:44:03.650Z,98.70
2022-12-12T03:44:44.517Z,98.70
2022-12-12T03:45:26.963Z,98.80
2022-12-12T03:46:11.810Z,98.80
2022-12-12T03:46:49.431Z,98.80
2022-12-12T03:47:28.056Z,98.80
2022-12-12T03:48:11.333Z,98.90
2022-12-12T03:48:48.590Z,98.90
2022-12-12T03:49:28.026Z,98.90
2022-12-12T03:50:08.677Z,98.90
2022-12-12T03:50:45.848Z,98.90
2022-12-12T03:51:27.504Z,98.90
2022-12-12T03:52:07.951Z,98.80
2022-12-12T03:52:47.304Z,98.70
2022-12-12T03:53:29.014Z,98.60
2022-12-12T03:54:10.353Z,98.60
2022-12-12T03:54:50.193Z,98.60
2022-12-12T03:55:29.579Z,98.60
2022-12-12T03:56:09.616Z,98.60
2022-12-12T03:56:48.743Z,98.60
2022-12-12T03:57:27.615Z,98.50
2022-12-12T03:58:11.470Z,98.50
2022-12-12T03:58:51.543Z,98.40
2022-12-12T03:59:32.570Z,98.20
2022-12-12T04:00:08.664Z,98.20
2022-12-12T04:00:55.550Z,98.10
2022-12-12T04:01:37.795Z,98.00
2022-12-12T04:02:17.879Z,98.10
2022-12-12T04:02:58.436Z,98.20
2022-12-12T04:03:41.582Z,98.20
2022-12-12T04:04:21.102Z,98.20
2022-12-12T04:05:02.155Z,98.20
2022-12-12T04:06:03.751Z,98.30
2022-12-12T04:06:40.869Z,98.40
2022-12-12T04:07:19.774Z,98.30
2022-12-12T04:07:58.323Z,98.30
2022-12-12T04:08:35.919Z,98.30
2022-12-12T04:09:32.127Z,98.40
2022-12-12T04:10:24.797Z,98.40
2022-12-12T04:11:24.422Z,98.40
2022-12-12T04:12:23.778Z,98.40
2022-12-12T04:13:07.007Z,98.40
2022-12-12T04:13:51.614Z,98.30
2022-12-12T04:14:42.443Z,98.30
2022-12-12T04:15:46.952Z,98.30
2022-12-12T04:16:27.755Z,98.30
2022-12-12T04:17:05.958Z,98.40
2022-12-12T04:17:44.170Z,98.40
2022-12-12T04:18:25.919Z,98.50
2022-12-12T04:19:09.913Z,98.60
2022-12-12T04:20:07.857Z,98.70
2022-12-12T04:21:04.201Z,98.80
2022-12-12T04:22:01.631Z,98.90
2022-12-12T04:22:59.730Z,99.00
2022-12-12T04:23:38.940Z,99.10
2022-12-12T04:24:23.072Z,99.20
2022-12-12T04:25:03.097Z,99.10
2022-12-12T04:25:59.946Z,99.00
2022-12-12T04:26:41.298Z,99.00
2022-12-12T04:27:26.677Z,99.00
2022-12-12T04:28:06.256Z,99.10
2022-12-12T04:28:45.235Z,99.10
2022-12-12T04:29:30.987Z,99.00
2022-12-12T04:30:09.040Z,99.00
2022-12-12T04:30:44.711Z,99.00
2022-12-12T04:31:21.308Z,99.10
2022-12-12T04:32:01.500Z,99.10
2022-12-12T04:32:41.546Z,99.10
2022-12-12T04:33:20.067Z,99.10
2022-12-12T04:33:58.991Z,99.10
2022-12-12T04:34:40.654Z,99.20
2022-12-12T04:35:19.716Z,99.20
2022-12-12T04:35:55.134Z,99.20
2022-12-12T04:36:33.982Z,99.20
2022-12-12T04:37:12.197Z,99.10
2022-12-12T04:37:50.769Z,99.10
2022-12-12T04:38:26.604Z,99.00
2022-12-12T04:39:03.819Z,99.00
2022-12-12T04:39:41.683Z,99.00
2022-12-12T04:40:21.037Z,99.10
2022-12-12T04:40:58.571Z,99.10
2022-12-12T04:41:36.916Z,99.10
2022-12-12T04:42:16.564Z,99.10
2022-12-12T04:43:09.221Z,99.10
2022-12-12T04:43:44.444Z,99.00
2022-12-12T04:44:22.208Z,99.00
2022-12-12T04:45:02.820Z,99.00
2022-12-12T04:45:41.679Z,99.10
2022-12-12T04:46:19.201Z,99.00
2022-12-12T04:46:57.025Z,99.00
2022-12-12T04:47:32.794Z,99.10
2022-12-12T04:48:12.059Z,99.20
2022-12-12T04:48:53.560Z,99.20
2022-12-12T04:49:32.137Z,99.20
2022-12-12T04:50:10.967Z,99.20
2022-12-12T04:50:49.595Z,99.10
2022-12-12T04:51:28.126Z,99.10
2022-12-12T04:52:06.286Z,99.00
2022-12-12T04:52:44.430Z,99.00
2022-12-12T04:53:24.201Z,99.00
2022-12-12T04:54:09.022Z,99.00
2022-12-12T04:54:48.475Z,99.10
2022-12-12T04:55:27.753Z,99.10
2022-12-12T04:56:10.321Z,99.00
2022-12-12T04:56:47.179Z,99.00
2022-12-12T04:57:28.402Z,99.00
2022-12-12T04:58:03.948Z,99.00
2022-12-12T04:58:39.735Z,99.00
2022-12-12T04:59:14.726Z,99.00
2022-12-12T04:59:50.877Z,98.90
2022-12-12T05:00:28.397Z,98.90
2022-12-12T05:01:09.535Z,98.90
2022-12-12T05:01:53.156Z,98.90
2022-12-12T05:02:35.565Z,99.00
2022-12-12T05:03:17.282Z,99.10
2022-12-12T05:03:55.515Z,99.20
2022-12-12T05:04:37.543Z,99.20
2022-12-12T05:05:19.065Z,99.20
2022-12-12T05:05:59.948Z,99.20
2022-12-12T05:06:43.770Z,99.20
2022-12-12T05:07:24.358Z,99.10
2022-12-12T05:08:02.428Z,99.00
2022-12-12T05:08:39.204Z,99.00
2022-12-12T05:09:15.286Z,99.10
2022-12-12T05:09:51.187Z,99.10
2022-12-12T05:10:26.877Z,99.20
2022-12-12T05:11:03.501Z,99.30
2022-12-12T05:11:37.188Z,99.60
2022-12-12T05:12:16.630Z,99.40
2022-12-12T05:12:53.049Z,99.50
2022-12-12T05:13:31.557Z,99.50
2022-12-12T05:14:09.347Z,99.40
2022-12-12T05:14:45.445Z,99.60
2022-12-12T05:15:21.749Z,99.20
2022-12-12T05:15:58.916Z,99.20
2022-12-12T05:16:38.752Z,99.10
2022-12-12T05:17:18.171Z,99.10
2022-12-12T05:17:57.351Z,99.00
2022-12-12T05:18:33.585Z,99.00
2022-12-12T05:19:07.338Z,99.00
2022-12-12T05:19:42.596Z,99.00
2022-12-12T05:20:18.785Z,99.10
2022-12-12T05:20:52.806Z,99.20
2022-12-12T05:21:27.032Z,99.20
2022-12-12T05:22:02.276Z,99.30
2022-12-12T05:22:37.135Z,99.30
2022-12-12T05:23:13.531Z,99.30
2022-12-12T05:23:48.708Z,99.30
2022-12-12T05:24:24.682Z,99.20
2022-12-12T05:25:00.171Z,99.20
2022-12-12T05:25:33.946Z,99.10
2022-12-12T05:26:10.752Z,99.20
2022-12-12T05:26:46.141Z,99.30
2022-12-12T05:27:21.978Z,99.30
2022-12-12T05:27:56.798Z,99.40
2022-12-12T05:28:32.452Z,99.40
2022-12-12T05:29:08.471Z,99.50
2022-12-12T05:29:42.414Z,99.50
2022-12-12T05:30:18.719Z,99.40
2022-12-12T05:30:53.741Z,99.30
2022-12-12T05:31:33.968Z,99.20
2022-12-12T05:32:09.822Z,99.20
2022-12-12T05:32:44.921Z,99.30
2022-12-12T05:33:19.759Z,99.20
2022-12-12T05:33:57.755Z,99.20
2022-12-12T05:34:32.130Z,99.20
2022-12-12T05:35:11.355Z,99.10
2022-12-12T05:35:47.959Z,99.00
2022-12-12T05:36:25.181Z,99.10
2022-12-12T05:37:04.392Z,99.10
2022-12-12T05:37:38.581Z,99.10
2022-12-12T05:38:13.908Z,99.10
2022-12-12T05:38:52.475Z,99.20
2022-12-12T05:39:30.198Z,99.20
2022-12-12T05:40:08.872Z,99.20
2022-12-12T05:40:43.520Z,99.30
2022-12-12T05:41:22.054Z,99.30
2022-12-12T05:41:57.798Z,99.30
2022-12-12T05:42:32.910Z,99.40
2022-12-12T05:43:07.823Z,99.30
2022-12-12T05:43:44.343Z,99.20
2022-12-12T05:44:19.992Z,99.20
2022-12-12T05:44:54.239Z,99.20
2022-12-12T05:45:28.507Z,99.10
2022-12-12T05:46:08.089Z,99.20
2022-12-12T05:46:43.179Z,99.10
2022-12-12T05:47:19.457Z,99.10
2022-12-12T05:47:58.626Z,99.00
2022-12-12T05:48:32.455Z,99.00
2022-12-12T05:49:07.200Z,98.90
2022-12-12T05:49:42.289Z,98.90
2022-12-12T05:50:17.939Z,98.90
2022-12-12T05:50:54.013Z,98.90
2022-12-12T05:51:34.378Z,98.90
2022-12-12T05:52:10.842Z,98.90
2022-12-12T05:52:46.567Z,98.90
2022-12-12T05:53:21.815Z,98.80
2022-12-12T05:53:58.283Z,98.80
2022-12-12T05:54:34.358Z,98.80
2022-12-12T05:55:10.800Z,98.90
2022-12-12T05:55:50.440Z,99.00
2022-12-12T05:56:23.696Z,99.00
2022-12-12T05:56:58.230Z,99.00
2022-12-12T05:57:33.597Z,99.00
2022-12-12T05:58:07.830Z,99.10
2022-12-12T05:58:44.991Z,99.10
2022-12-12T05:59:19.343Z,99.00
2022-12-12T05:59:59.048Z,99.00
2022-12-12T06:00:33.904Z,99.00
2022-12-12T06:01:10.347Z,99.00
2022-12-12T06:01:45.191Z,99.10
2022-12-12T06:02:21.956Z,99.10
2022-12-12T06:02:57.521Z,99.10
2022-12-12T06:03:35.012Z,99.10
2022-12-12T06:04:13.301Z,99.10
2022-12-12T06:04:48.213Z,99.00
2022-12-12T06:05:23.090Z,99.10
2022-12-12T06:06:00.372Z,99.10
2022-12-12T06:06:35.470Z,99.10
2022-12-12T06:07:11.156Z,99.10
2022-12-12T06:07:47.360Z,99.20
2022-12-12T06:08:25.155Z,99.20
2022-12-12T06:09:03.879Z,99.30
2022-12-12T06:09:39.375Z,99.30
2022-12-12T06:10:14.841Z,99.20
2022-12-12T06:10:56.687Z,99.40
2022-12-12T06:11:31.086Z,99.20
2022-12-12T06:12:10.679Z,99.30
2022-12-12T06:12:44.004Z,99.30
2022-12-12T06:13:19.312Z,99.30
2022-12-12T06:13:54.132Z,99.30
2022-12-12T06:14:30.636Z,99.30
2022-12-12T06:15:06.140Z,99.30
2022-12-12T06:15:41.707Z,99.30
2022-12-12T06:16:19.306Z,99.30
2022-12-12T06:16:54.781Z,99.20
2022-12-12T06:17:33.293Z,99.20
2022-12-12T06:18:09.775Z,99.20
2022-12-12T06:18:45.201Z,99.20
2022-12-12T06:19:20.188Z,99.30
2022-12-12T06:19:56.555Z,99.30
2022-12-12T06:20:31.525Z,99.30
2022-12-12T06:21:10.140Z,99.20
2022-12-12T06:21:45.279Z,99.20
2022-12-12T06:22:20.553Z,99.20
2022-12-12T06:22:54.426Z,99.20
2022-12-12T06:23:29.707Z,99.20
2022-12-12T06:24:05.654Z,99.20
2022-12-12T06:24:40.952Z,99.10
2022-12-12T06:25:17.757Z,99.10
2022-12-12T06:25:51.736Z,99.10
2022-12-12T06:26:26.245Z,99.10
2022-12-12T06:27:01.785Z,99.10
2022-12-12T06:27:36.538Z,99.00
2022-12-12T06:28:13.021Z,99.00
2022-12-12T06:28:47.961Z,99.00
2022-12-12T06:29:23.407Z,99.00
2022-12-12T06:29:57.819Z,98.90
2022-12-12T06:30:34.894Z,98.90
2022-12-12T06:31:12.135Z,98.80
2022-12-12T06:31:48.185Z,98.80
2022-12-12T06:32:22.501Z,98.80
2022-12-12T06:32:58.380Z,98.80
2022-12-12T06:33:35.995Z,98.80
2022-12-12T06:34:12.293Z,98.70
2022-12-12T06:34:46.118Z,98.80
2022-12-12T06:35:21.120Z,98.80
2022-12-12T06:36:03.175Z,98.90
2022-12-12T06:36:39.380Z,98.80
2022-12-12T06:37:17.161Z,98.90
2022-12-12T06:37:52.479Z,98.90
2022-12-12T06:38:26.798Z,98.90
2022-12-12T06:39:03.298Z,98.90
2022-12-12T06:39:39.062Z,98.90
2022-12-12T06:40:15.549Z,98.90
2022-12-12T06:40:51.617Z,98.80
2022-12-12T06:41:27.852Z,98.90
2022-12-12T06:42:03.478Z,99.00
2022-12-12T06:42:41.928Z,99.10
2022-12-12T06:43:20.504Z,99.20
2022-12-12T06:43:55.185Z,99.20
2022-12-12T06:44:31.276Z,99.10
2022-12-12T06:45:08.342Z,99.10
2022-12-12T06:45:43.245Z,99.10
2022-12-12T06:46:21.024Z,99.20
2022-12-12T06:46:55.530Z,99.20
2022-12-12T06:47:29.277Z,99.20
2022-12-12T06:48:05.333Z,99.20
2022-12-12T06:48:40.206Z,99.10
2022-12-12T06:49:15.103Z,99.20
2022-12-12T06:49:49.484Z,99.10
2022-12-12T06:50:24.085Z,99.10
2022-12-12T06:50:59.430Z,99.10
2022-12-12T06:51:34.346Z,99.10
2022-12-12T06:52:12.248Z,99.10
2022-12-12T06:52:47.052Z,99.10
2022-12-12T06:53:21.949Z,99.10
2022-12-12T06:54:00.612Z,99.10
2022-12-12T06:54:34.870Z,99.10
2022-12-12T06:55:12.638Z,99.10
2022-12-12T06:55:47.749Z,99.10
2022-12-12T06:56:25.635Z,99.10
2022-12-12T06:57:00.044Z,99.10
2022-12-12T06:57:40.282Z,99.30
2022-12-12T06:58:15.181Z,99.00
2022-12-12T06:58:49.860Z,99.00
2022-12-12T06:59:25.977Z,98.90
2022-12-12T07:00:00.488Z,99.00
2022-12-12T07:00:35.505Z,99.10
2022-12-12T07:01:11.677Z,99.10
2022-12-12T07:01:47.637Z,99.10
2022-12-12T07:02:30.074Z,99.10
2022-12-12T07:03:11.855Z,99.10
2022-12-12T07:03:46.027Z,99.10
2022-12-12T07:04:21.648Z,99.10
2022-12-12T07:04:56.428Z,99.00
2022-12-12T07:05:31.478Z,99.00
2022-12-12T07:06:10.967Z,99.00
2022-12-12T07:07:04.770Z,99.00
2022-12-12T07:07:44.857Z,98.90
2022-12-12T07:08:19.875Z,98.90
2022-12-12T07:08:56.502Z,98.90
2022-12-12T07:09:30.885Z,98.80
2022-12-12T07:10:11.316Z,98.80
2022-12-12T07:10:47.410Z,98.80
2022-12-12T07:11:26.606Z,98.80
2022-12-12T07:12:01.523Z,98.80
2022-12-12T07:12:38.867Z,98.80
2022-12-12T07:13:14.450Z,98.90
2022-12-12T07:13:48.928Z,98.90
2022-12-12T07:14:25.653Z,98.80
2022-12-12T07:15:01.051Z,98.80
2022-12-12T07:15:42.677Z,98.80
2022-12-12T07:16:17.765Z,98.80
2022-12-12T07:16:52.385Z,98.90
2022-12-12T07:17:27.537Z,98.90
2022-12-12T07:18:02.386Z,98.90
2022-12-12T07:18:38.315Z,99.00
2022-12-12T07:19:13.193Z,98.90
2022-12-12T07:19:48.397Z,98.90
2022-12-12T07:20:22.923Z,98.90
2022-12-12T07:20:57.445Z,98.90
2022-12-12T07:21:32.423Z,98.90
2022-12-12T07:22:10.014Z,98.80
2022-12-12T07:22:48.695Z,98.80
2022-12-12T07:23:23.018Z,98.80
2022-12-12T07:23:58.292Z,98.90
2022-12-12T07:24:32.599Z,99.00
2022-12-12T07:25:10.840Z,99.00
2022-12-12T07:25:46.771Z,98.90
2022-12-12T07:26:24.056Z,99.00
2022-12-12T07:26:58.954Z,99.00
2022-12-12T07:27:35.122Z,99.00
2022-12-12T07:28:10.788Z,99.00
2022-12-12T07:28:44.645Z,99.00
2022-12-12T07:29:21.192Z,99.10
2022-12-12T07:29:56.105Z,99.00
2022-12-12T07:30:30.977Z,98.90
2022-12-12T07:31:08.601Z,98.90
2022-12-12T07:31:44.560Z,98.90
2022-12-12T07:32:19.530Z,98.90
2022-12-12T07:32:55.370Z,98.90
2022-12-12T07:33:41.020Z,98.90
2022-12-12T07:34:18.240Z,98.80
2022-12-12T07:34:54.182Z,98.80
2022-12-12T07:35:30.055Z,98.80
2022-12-12T07:36:06.512Z,98.80
2022-12-12T07:36:43.065Z,98.90
2022-12-12T07:37:18.040Z,99.00
2022-12-12T07:37:57.298Z,99.00
2022-12-12T07:38:32.429Z,99.10
2022-12-12T07:39:07.303Z,99.20
2022-12-12T07:39:42.133Z,99.20
2022-12-12T07:40:18.852Z,99.30
2022-12-12T07:40:53.436Z,99.30
2022-12-12T07:41:28.226Z,99.20
2022-12-12T07:42:02.372Z,99.20
2022-12-12T07:42:37.678Z,99.10
2022-12-12T07:43:12.824Z,99.10
2022-12-12T07:43:46.605Z,99.10
2022-12-12T07:44:22.054Z,99.10
2022-12-12T07:44:56.442Z,99.20
2022-12-12T07:45:32.770Z,99.10
2022-12-12T07:46:11.721Z,99.10
2022-12-12T07:46:52.503Z,99.10
2022-12-12T07:47:26.525Z,99.10
2022-12-12T07:48:24.459Z,99.10
2022-12-12T07:49:00.066Z,99.10
2022-12-12T07:49:38.312Z,99.20
2022-12-12T07:50:15.994Z,99.20
2022-12-12T07:50:50.937Z,99.20
2022-12-12T07:51:28.616Z,99.20
2022-12-12T07:52:35.148Z,99.20
2022-12-12T07:53:12.383Z,99.20
2022-12-12T07:53:48.384Z,99.30
2022-12-12T07:54:26.456Z,99.30
2022-12-12T07:55:03.250Z,99.30
2022-12-12T07:55:41.027Z,99.30
2022-12-12T07:56:17.059Z,99.40
2022-12-12T07:56:52.638Z,99.40
2022-12-12T07:57:27.717Z,99.40
2022-12-12T07:58:02.190Z,99.40
2022-12-12T07:58:39.350Z,99.40
2022-12-12T07:59:14.491Z,99.40
2022-12-12T07:59:50.374Z,99.40
2022-12-12T08:00:28.506Z,99.40
2022-12-12T08:01:14.404Z,99.30
2022-12-12T08:01:50.512Z,99.20
2022-12-12T08:02:25.999Z,99.20
2022-12-12T08:02:59.941Z,99.30
2022-12-12T08:03:34.868Z,99.40
2022-12-12T08:04:09.837Z,99.40
2022-12-12T08:04:44.172Z,99.40
2022-12-12T08:05:19.763Z,99.30
2022-12-12T08:05:54.696Z,99.30
2022-12-12T08:06:31.016Z,99.40
2022-12-12T08:07:08.436Z,99.40
2022-12-12T08:07:44.684Z,99.50
2022-12-12T08:08:20.825Z,99.50
2022-12-12T08:08:55.119Z,99.60
2022-12-12T08:09:29.388Z,99.60
2022-12-12T08:10:04.659Z,99.60
2022-12-12T08:10:42.156Z,99.60
2022-12-12T08:11:18.542Z,99.50
2022-12-12T08:11:56.396Z,99.40
2022-12-12T08:12:32.041Z,99.40
2022-12-12T08:13:07.763Z,99.30
2022-12-12T08:13:42.336Z,99.30
2022-12-12T08:14:17.507Z,99.30
2022-12-12T08:14:52.309Z,99.30
2022-12-12T08:15:26.956Z,99.30
2022-12-12T08:16:01.189Z,99.40
2022-12-12T08:16:36.594Z,99.30
2022-12-12T08:17:10.899Z,99.30